sensor_id;sensor_type;location;lat;lon;timestamp;temperature;humidity
48488;DHT22;34289;48.572;13.378;2022-09-09T00:01:22;11.80;99.90
48488;DHT22;34289;48.572;13.378;2022-09-09T00:04:01;12.10;99.90
48488;DHT22;34289;48.572;13.378;2022-09-09T00:09:17;12.00;99.90
48488;DHT22;34289;48.572;13.378;2022-09-09T00:11:53;11.70;99.90
48488;DHT22;34289;48.572;13.378;2022-09-09T00:23:12;11.60;99.90
48488;DHT22;34289;48.572;13.378;2022-09-09T00:31:28;11.50;99.90
48488;DHT22;34289;48.572;13.378;2022-09-09T00:34:05;11.40;99.90
48488;DHT22;34289;48.572;13.378;2022-09-09T00:36:36;11.30;99.90
48488;DHT22;34289;48.572;13.378;2022-09-09T00:39:04;11.30;99.90
48488;DHT22;34289;48.572;13.378;2022-09-09T00:44:32;11.20;99.90
48488;DHT22;34289;48.572;13.378;2022-09-09T00:59:57;11.20;99.90
48488;DHT22;34289;48.572;13.378;2022-09-09T01:02:31;11.10;99.90
48488;DHT22;34289;48.572;13.378;2022-09-09T01:05:22;11.20;99.90
48488;DHT22;34289;48.572;13.378;2022-09-09T01:07:50;11.30;99.90
48488;DHT22;34289;48.572;13.378;2022-09-09T01:10:49;11.50;99.90
48488;DHT22;34289;48.572;13.378;2022-09-09T01:13:30;11.60;99.90
48488;DHT22;34289;48.572;13.378;2022-09-09T01:16:01;11.50;99.90
48488;DHT22;34289;48.572;13.378;2022-09-09T01:18:40;11.50;99.90
48488;DHT22;34289;48.572;13.378;2022-09-09T01:26:42;11.70;99.90
48488;DHT22;34289;48.572;13.378;2022-09-09T01:29:12;11.70;99.90
48488;DHT22;34289;48.572;13.378;2022-09-09T01:31:41;11.70;99.90
48488;DHT22;34289;48.572;13.378;2022-09-09T01:34:15;11.80;99.90
48488;DHT22;34289;48.572;13.378;2022-09-09T01:37:10;11.70;99.90
48488;DHT22;34289;48.572;13.378;2022-09-09T01:39:39;11.80;99.90
48488;DHT22;34289;48.572;13.378;2022-09-09T01:42:09;11.80;99.90
48488;DHT22;34289;48.572;13.378;2022-09-09T01:44:36;11.80;99.90
48488;DHT22;34289;48.572;13.378;2022-09-09T01:47:02;11.80;99.90
48488;DHT22;34289;48.572;13.378;2022-09-09T01:49:28;11.90;99.90
48488;DHT22;34289;48.572;13.378;2022-09-09T01:51:55;11.90;99.90
48488;DHT22;34289;48.572;13.378;2022-09-09T01:54:24;11.90;99.90
48488;DHT22;34289;48.572;13.378;2022-09-09T01:59:45;12.00;99.90
48488;DHT22;34289;48.572;13.378;2022-09-09T02:02:14;12.00;99.90
48488;DHT22;34289;48.572;13.378;2022-09-09T02:04:52;12.10;99.90
48488;DHT22;34289;48.572;13.378;2022-09-09T02:10:02;12.80;99.90
48488;DHT22;34289;48.572;13.378;2022-09-09T02:12:31;12.80;99.90
48488;DHT22;34289;48.572;13.378;2022-09-09T02:15:05;12.20;99.90
48488;DHT22;34289;48.572;13.378;2022-09-09T02:17:36;12.10;99.90
48488;DHT22;34289;48.572;13.378;2022-09-09T02:20:23;12.70;99.90
48488;DHT22;34289;48.572;13.378;2022-09-09T02:22:50;12.20;99.90
48488;DHT22;34289;48.572;13.378;2022-09-09T02:25:20;12.40;99.90
48488;DHT22;34289;48.572;13.378;2022-09-09T02:27:49;12.50;99.90
48488;DHT22;34289;48.572;13.378;2022-09-09T02:30:16;12.30;99.90
48488;DHT22;34289;48.572;13.378;2022-09-09T02:32:43;12.30;99.90
48488;DHT22;34289;48.572;13.378;2022-09-09T02:35:13;12.30;99.90
48488;DHT22;34289;48.572;13.378;2022-09-09T02:37:41;12.30;99.90
48488;DHT22;34289;48.572;13.378;2022-09-09T02:40:09;12.40;99.90
48488;DHT22;34289;48.572;13.378;2022-09-09T02:42:44;12.30;99.90
48488;DHT22;34289;48.572;13.378;2022-09-09T02:45:12;12.40;99.90
48488;DHT22;34289;48.572;13.378;2022-09-09T02:47:47;13.00;99.90
48488;DHT22;34289;48.572;13.378;2022-09-09T02:50:25;12.40;99.90
48488;DHT22;34289;48.572;13.378;2022-09-09T02:53:01;12.40;99.90
48488;DHT22;34289;48.572;13.378;2022-09-09T02:55:48;12.40;99.90
48488;DHT22;34289;48.572;13.378;2022-09-09T02:58:17;12.40;99.90
48488;DHT22;34289;48.572;13.378;2022-09-09T03:00:47;12.40;99.90
48488;DHT22;34289;48.572;13.378;2022-09-09T03:03:13;12.50;99.90
48488;DHT22;34289;48.572;13.378;2022-09-09T03:05:38;12.50;99.90
48488;DHT22;34289;48.572;13.378;2022-09-09T03:08:05;12.50;99.90
48488;DHT22;34289;48.572;13.378;2022-09-09T03:10:31;12.50;99.90
48488;DHT22;34289;48.572;13.378;2022-09-09T03:12:57;12.50;99.90
48488;DHT22;34289;48.572;13.378;2022-09-09T03:15:23;12.50;99.90
48488;DHT22;34289;48.572;13.378;2022-09-09T03:17:48;12.50;99.90
48488;DHT22;34289;48.572;13.378;2022-09-09T03:20:14;12.50;99.90
48488;DHT22;34289;48.572;13.378;2022-09-09T03:22:40;12.60;99.90
48488;DHT22;34289;48.572;13.378;2022-09-09T03:25:06;12.60;99.90
48488;DHT22;34289;48.572;13.378;2022-09-09T03:27:32;12.60;99.90
48488;DHT22;34289;48.572;13.378;2022-09-09T03:29:58;12.60;99.90
48488;DHT22;34289;48.572;13.378;2022-09-09T03:32:24;13.20;99.90
48488;DHT22;34289;48.572;13.378;2022-09-09T03:34:51;12.70;99.90
48488;DHT22;34289;48.572;13.378;2022-09-09T03:37:18;12.70;99.90
48488;DHT22;34289;48.572;13.378;2022-09-09T03:39:44;12.70;99.90
48488;DHT22;34289;48.572;13.378;2022-09-09T03:42:12;12.70;99.90
48488;DHT22;34289;48.572;13.378;2022-09-09T03:44:39;12.70;99.90
48488;DHT22;34289;48.572;13.378;2022-09-09T03:47:05;12.80;99.90
48488;DHT22;34289;48.572;13.378;2022-09-09T03:49:32;13.20;99.90
48488;DHT22;34289;48.572;13.378;2022-09-09T03:51:57;12.80;99.90
48488;DHT22;34289;48.572;13.378;2022-09-09T03:54:25;12.80;99.90
48488;DHT22;34289;48.572;13.378;2022-09-09T03:56:51;12.80;99.90
48488;DHT22;34289;48.572;13.378;2022-09-09T03:59:16;12.90;99.90
48488;DHT22;34289;48.572;13.378;2022-09-09T04:01:42;12.80;99.90
48488;DHT22;34289;48.572;13.378;2022-09-09T04:04:08;13.30;99.90
48488;DHT22;34289;48.572;13.378;2022-09-09T04:06:34;12.80;99.90
48488;DHT22;34289;48.572;13.378;2022-09-09T04:09:00;12.90;99.90
48488;DHT22;34289;48.572;13.378;2022-09-09T04:11:27;12.80;99.90
48488;DHT22;34289;48.572;13.378;2022-09-09T04:13:53;13.20;99.90
48488;DHT22;34289;48.572;13.378;2022-09-09T04:16:19;13.00;99.90
48488;DHT22;34289;48.572;13.378;2022-09-09T04:18:45;12.80;99.90
48488;DHT22;34289;48.572;13.378;2022-09-09T04:21:12;12.80;99.90
48488;DHT22;34289;48.572;13.378;2022-09-09T04:23:38;12.80;99.90
48488;DHT22;34289;48.572;13.378;2022-09-09T04:26:05;13.10;99.90
48488;DHT22;34289;48.572;13.378;2022-09-09T04:28:32;12.80;99.90
48488;DHT22;34289;48.572;13.378;2022-09-09T04:31:08;13.00;99.90
48488;DHT22;34289;48.572;13.378;2022-09-09T04:33:34;12.90;99.90
48488;DHT22;34289;48.572;13.378;2022-09-09T04:36:00;12.90;99.90
48488;DHT22;34289;48.572;13.378;2022-09-09T04:38:26;12.80;99.90
48488;DHT22;34289;48.572;13.378;2022-09-09T04:40:52;12.80;99.90
48488;DHT22;34289;48.572;13.378;2022-09-09T04:43:19;12.70;99.90
48488;DHT22;34289;48.572;13.378;2022-09-09T04:45:50;12.10;99.90
48488;DHT22;34289;48.572;13.378;2022-09-09T04:48:20;12.80;99.90
48488;DHT22;34289;48.572;13.378;2022-09-09T04:51:00;12.80;99.90
48488;DHT22;34289;48.572;13.378;2022-09-09T04:53:26;12.90;99.90
48488;DHT22;34289;48.572;13.378;2022-09-09T04:56:00;13.30;99.90
48488;DHT22;34289;48.572;13.378;2022-09-09T04:58:26;13.00;99.90
48488;DHT22;34289;48.572;13.378;2022-09-09T05:00:52;13.00;99.90
48488;DHT22;34289;48.572;13.378;2022-09-09T05:03:18;13.00;99.90
48488;DHT22;34289;48.572;13.378;2022-09-09T05:05:44;13.20;99.90
48488;DHT22;34289;48.572;13.378;2022-09-09T05:08:10;13.30;99.90
48488;DHT22;34289;48.572;13.378;2022-09-09T05:10:37;12.90;99.90
48488;DHT22;34289;48.572;13.378;2022-09-09T05:13:03;13.10;99.90
48488;DHT22;34289;48.572;13.378;2022-09-09T05:15:30;12.90;99.90
48488;DHT22;34289;48.572;13.378;2022-09-09T05:17:58;12.90;99.90
48488;DHT22;34289;48.572;13.378;2022-09-09T05:20:24;13.40;99.90
48488;DHT22;34289;48.572;13.378;2022-09-09T05:22:55;13.00;99.90
48488;DHT22;34289;48.572;13.378;2022-09-09T05:25:22;12.90;99.90
48488;DHT22;34289;48.572;13.378;2022-09-09T05:27:49;12.90;99.90
48488;DHT22;34289;48.572;13.378;2022-09-09T05:30:15;12.90;99.90
48488;DHT22;34289;48.572;13.378;2022-09-09T05:32:42;13.00;99.90
48488;DHT22;34289;48.572;13.378;2022-09-09T05:35:08;12.90;99.90
48488;DHT22;34289;48.572;13.378;2022-09-09T05:37:34;13.00;99.90
48488;DHT22;34289;48.572;13.378;2022-09-09T05:40:00;13.10;99.90
48488;DHT22;34289;48.572;13.378;2022-09-09T05:42:30;13.10;99.90
48488;DHT22;34289;48.572;13.378;2022-09-09T05:44:56;13.10;99.90
48488;DHT22;34289;48.572;13.378;2022-09-09T05:47:23;13.00;99.90
48488;DHT22;34289;48.572;13.378;2022-09-09T05:49:49;13.10;99.90
48488;DHT22;34289;48.572;13.378;2022-09-09T05:52:14;13.00;99.90
48488;DHT22;34289;48.572;13.378;2022-09-09T05:54:40;13.00;99.90
48488;DHT22;34289;48.572;13.378;2022-09-09T05:57:06;13.10;99.90
48488;DHT22;34289;48.572;13.378;2022-09-09T05:59:32;13.00;99.90
48488;DHT22;34289;48.572;13.378;2022-09-09T06:01:58;13.30;99.90
48488;DHT22;34289;48.572;13.378;2022-09-09T06:04:24;13.10;99.90
48488;DHT22;34289;48.572;13.378;2022-09-09T06:06:50;13.20;99.90
48488;DHT22;34289;48.572;13.378;2022-09-09T06:09:16;13.20;99.90
48488;DHT22;34289;48.572;13.378;2022-09-09T06:11:43;13.40;99.90
48488;DHT22;34289;48.572;13.378;2022-09-09T06:14:08;13.30;99.90
48488;DHT22;34289;48.572;13.378;2022-09-09T06:16:35;13.50;99.90
48488;DHT22;34289;48.572;13.378;2022-09-09T06:19:02;13.60;99.90
48488;DHT22;34289;48.572;13.378;2022-09-09T06:21:31;13.60;99.90
48488;DHT22;34289;48.572;13.378;2022-09-09T06:23:58;13.80;99.90
48488;DHT22;34289;48.572;13.378;2022-09-09T06:26:26;13.70;99.90
48488;DHT22;34289;48.572;13.378;2022-09-09T06:28:54;13.90;99.90
48488;DHT22;34289;48.572;13.378;2022-09-09T06:31:22;13.90;99.90
48488;DHT22;34289;48.572;13.378;2022-09-09T06:33:49;14.20;99.90
48488;DHT22;34289;48.572;13.378;2022-09-09T06:36:23;14.10;99.90
48488;DHT22;34289;48.572;13.378;2022-09-09T06:38:49;14.20;99.90
48488;DHT22;34289;48.572;13.378;2022-09-09T06:41:17;14.30;99.90
48488;DHT22;34289;48.572;13.378;2022-09-09T06:43:44;14.40;99.90
48488;DHT22;34289;48.572;13.378;2022-09-09T06:46:17;14.50;99.90
48488;DHT22;34289;48.572;13.378;2022-09-09T06:48:44;14.50;99.90
48488;DHT22;34289;48.572;13.378;2022-09-09T06:51:12;14.60;99.90
48488;DHT22;34289;48.572;13.378;2022-09-09T06:53:40;14.70;99.90
48488;DHT22;34289;48.572;13.378;2022-09-09T06:56:25;14.80;99.90
48488;DHT22;34289;48.572;13.378;2022-09-09T06:58:52;14.90;99.90
48488;DHT22;34289;48.572;13.378;2022-09-09T07:01:20;14.90;99.90
48488;DHT22;34289;48.572;13.378;2022-09-09T07:03:51;14.90;99.90
48488;DHT22;34289;48.572;13.378;2022-09-09T07:06:25;15.00;99.90
48488;DHT22;34289;48.572;13.378;2022-09-09T07:08:52;15.00;99.90
48488;DHT22;34289;48.572;13.378;2022-09-09T07:11:19;15.00;99.90
48488;DHT22;34289;48.572;13.378;2022-09-09T07:13:45;15.00;99.90
48488;DHT22;34289;48.572;13.378;2022-09-09T07:16:14;14.90;99.90
48488;DHT22;34289;48.572;13.378;2022-09-09T07:18:41;14.90;99.90
48488;DHT22;34289;48.572;13.378;2022-09-09T07:21:09;14.90;99.90
48488;DHT22;34289;48.572;13.378;2022-09-09T07:23:35;14.90;99.90
48488;DHT22;34289;48.572;13.378;2022-09-09T07:26:08;15.20;99.90
48488;DHT22;34289;48.572;13.378;2022-09-09T07:28:34;15.00;99.90
48488;DHT22;34289;48.572;13.378;2022-09-09T07:31:01;14.90;99.90
48488;DHT22;34289;48.572;13.378;2022-09-09T07:33:31;15.00;99.90
48488;DHT22;34289;48.572;13.378;2022-09-09T07:38:43;15.30;99.90
48488;DHT22;34289;48.572;13.378;2022-09-09T07:41:13;15.40;99.90
48488;DHT22;34289;48.572;13.378;2022-09-09T07:43:44;15.40;99.90
48488;DHT22;34289;48.572;13.378;2022-09-09T07:46:12;15.40;99.90
48488;DHT22;34289;48.572;13.378;2022-09-09T07:48:39;15.50;99.90
48488;DHT22;34289;48.572;13.378;2022-09-09T07:51:11;15.60;99.90
48488;DHT22;34289;48.572;13.378;2022-09-09T07:53:38;15.70;99.90
48488;DHT22;34289;48.572;13.378;2022-09-09T07:56:09;16.00;99.90
48488;DHT22;34289;48.572;13.378;2022-09-09T07:58:37;16.10;99.90
48488;DHT22;34289;48.572;13.378;2022-09-09T08:01:23;16.10;99.90
48488;DHT22;34289;48.572;13.378;2022-09-09T08:03:58;16.20;99.90
48488;DHT22;34289;48.572;13.378;2022-09-09T08:06:25;16.20;99.90
48488;DHT22;34289;48.572;13.378;2022-09-09T08:08:53;16.30;99.90
48488;DHT22;34289;48.572;13.378;2022-09-09T08:11:20;16.30;99.90
48488;DHT22;34289;48.572;13.378;2022-09-09T08:13:46;16.40;99.90
48488;DHT22;34289;48.572;13.378;2022-09-09T08:16:15;16.50;99.90
48488;DHT22;34289;48.572;13.378;2022-09-09T08:18:42;16.60;99.90
48488;DHT22;34289;48.572;13.378;2022-09-09T08:21:17;16.60;99.90
48488;DHT22;34289;48.572;13.378;2022-09-09T08:23:45;16.70;99.90
48488;DHT22;34289;48.572;13.378;2022-09-09T08:26:13;16.70;99.90
48488;DHT22;34289;48.572;13.378;2022-09-09T08:28:40;16.90;99.90
48488;DHT22;34289;48.572;13.378;2022-09-09T08:31:08;17.00;99.90
48488;DHT22;34289;48.572;13.378;2022-09-09T08:33:34;17.10;99.90
48488;DHT22;34289;48.572;13.378;2022-09-09T08:36:02;17.10;99.90
48488;DHT22;34289;48.572;13.378;2022-09-09T08:38:28;17.20;99.90
48488;DHT22;34289;48.572;13.378;2022-09-09T08:41:03;17.30;99.90
48488;DHT22;34289;48.572;13.378;2022-09-09T08:43:30;17.50;99.90
48488;DHT22;34289;48.572;13.378;2022-09-09T08:46:43;17.60;99.90
48488;DHT22;34289;48.572;13.378;2022-09-09T08:49:06;17.80;99.90
48488;DHT22;34289;48.572;13.378;2022-09-09T08:51:37;17.70;99.90
48488;DHT22;34289;48.572;13.378;2022-09-09T08:54:03;17.70;99.90
48488;DHT22;34289;48.572;13.378;2022-09-09T08:56:31;17.60;99.90
48488;DHT22;34289;48.572;13.378;2022-09-09T08:59:00;17.60;99.90
48488;DHT22;34289;48.572;13.378;2022-09-09T09:09:29;17.40;99.90
48488;DHT22;34289;48.572;13.378;2022-09-09T09:12:00;17.50;99.90
48488;DHT22;34289;48.572;13.378;2022-09-09T09:14:29;17.40;99.90
48488;DHT22;34289;48.572;13.378;2022-09-09T09:17:03;17.30;99.90
48488;DHT22;34289;48.572;13.378;2022-09-09T09:19:32;17.20;99.90
48488;DHT22;34289;48.572;13.378;2022-09-09T09:22:18;17.30;99.90
48488;DHT22;34289;48.572;13.378;2022-09-09T09:25:19;17.40;99.90
48488;DHT22;34289;48.572;13.378;2022-09-09T09:27:58;17.50;99.90
48488;DHT22;34289;48.572;13.378;2022-09-09T09:30:42;17.60;99.90
48488;DHT22;34289;48.572;13.378;2022-09-09T09:33:21;17.60;99.90
48488;DHT22;34289;48.572;13.378;2022-09-09T09:35:49;17.50;99.90
48488;DHT22;34289;48.572;13.378;2022-09-09T09:40:53;17.50;99.90
48488;DHT22;34289;48.572;13.378;2022-09-09T09:43:37;17.60;99.90
48488;DHT22;34289;48.572;13.378;2022-09-09T09:46:16;17.60;99.90
48488;DHT22;34289;48.572;13.378;2022-09-09T09:48:43;17.60;99.90
48488;DHT22;34289;48.572;13.378;2022-09-09T09:51:13;17.50;99.90
48488;DHT22;34289;48.572;13.378;2022-09-09T09:53:41;17.50;99.90
48488;DHT22;34289;48.572;13.378;2022-09-09T09:56:11;17.60;99.90
48488;DHT22;34289;48.572;13.378;2022-09-09T10:03:58;17.60;99.90
48488;DHT22;34289;48.572;13.378;2022-09-09T10:06:36;17.70;99.90
48488;DHT22;34289;48.572;13.378;2022-09-09T10:09:19;17.70;99.90
48488;DHT22;34289;48.572;13.378;2022-09-09T10:19:36;17.30;99.90
48488;DHT22;34289;48.572;13.378;2022-09-09T10:25:01;17.30;99.90
48488;DHT22;34289;48.572;13.378;2022-09-09T10:27:54;17.30;99.90
48488;DHT22;34289;48.572;13.378;2022-09-09T10:33:30;17.10;99.90
48488;DHT22;34289;48.572;13.378;2022-09-09T10:38:37;17.00;99.90
48488;DHT22;34289;48.572;13.378;2022-09-09T10:52:09;16.70;99.90
48488;DHT22;34289;48.572;13.378;2022-09-09T10:54:48;16.70;99.90
48488;DHT22;34289;48.572;13.378;2022-09-09T10:57:33;16.70;99.90
48488;DHT22;34289;48.572;13.378;2022-09-09T11:00:05;16.80;99.90
48488;DHT22;34289;48.572;13.378;2022-09-09T11:02:33;16.90;99.90
48488;DHT22;34289;48.572;13.378;2022-09-09T11:05:22;16.90;99.90
48488;DHT22;34289;48.572;13.378;2022-09-09T11:07:57;16.80;99.90
48488;DHT22;34289;48.572;13.378;2022-09-09T11:13:39;16.80;99.90
48488;DHT22;34289;48.572;13.378;2022-09-09T11:18:59;16.70;99.90
48488;DHT22;34289;48.572;13.378;2022-09-09T11:21:33;17.60;99.90
48488;DHT22;34289;48.572;13.378;2022-09-09T11:24:04;16.60;99.90
48488;DHT22;34289;48.572;13.378;2022-09-09T11:26:55;16.50;99.90
48488;DHT22;34289;48.572;13.378;2022-09-09T11:37:24;16.60;99.90
48488;DHT22;34289;48.572;13.378;2022-09-09T11:42:30;16.50;99.90
48488;DHT22;34289;48.572;13.378;2022-09-09T11:44:56;16.40;99.90
48488;DHT22;34289;48.572;13.378;2022-09-09T11:50:09;16.40;99.90
48488;DHT22;34289;48.572;13.378;2022-09-09T11:52:40;16.40;99.90
48488;DHT22;34289;48.572;13.378;2022-09-09T11:55:27;16.40;99.90
48488;DHT22;34289;48.572;13.378;2022-09-09T12:00:38;16.40;99.90
48488;DHT22;34289;48.572;13.378;2022-09-09T12:03:06;16.40;99.90
48488;DHT22;34289;48.572;13.378;2022-09-09T12:05:51;16.40;99.90
48488;DHT22;34289;48.572;13.378;2022-09-09T12:08:24;16.40;99.90
48488;DHT22;34289;48.572;13.378;2022-09-09T12:10:57;16.30;99.90
48488;DHT22;34289;48.572;13.378;2022-09-09T12:13:26;16.30;99.90
48488;DHT22;34289;48.572;13.378;2022-09-09T12:15:57;16.20;99.90
48488;DHT22;34289;48.572;13.378;2022-09-09T12:21:02;16.30;99.90
48488;DHT22;34289;48.572;13.378;2022-09-09T12:23:52;16.40;99.90
48488;DHT22;34289;48.572;13.378;2022-09-09T12:34:55;16.60;99.90
48488;DHT22;34289;48.572;13.378;2022-09-09T12:37:38;16.70;99.90
48488;DHT22;34289;48.572;13.378;2022-09-09T12:40:24;16.70;99.90
48488;DHT22;34289;48.572;13.378;2022-09-09T12:42:50;16.70;99.90
48488;DHT22;34289;48.572;13.378;2022-09-09T12:45:24;16.60;99.90
48488;DHT22;34289;48.572;13.378;2022-09-09T12:52:54;16.60;99.90
48488;DHT22;34289;48.572;13.378;2022-09-09T12:55:24;16.60;99.90
48488;DHT22;34289;48.572;13.378;2022-09-09T12:57:51;16.50;99.90
48488;DHT22;34289;48.572;13.378;2022-09-09T13:00:21;16.50;99.90
48488;DHT22;34289;48.572;13.378;2022-09-09T13:02:59;16.50;99.90
48488;DHT22;34289;48.572;13.378;2022-09-09T13:05:27;16.50;99.90
48488;DHT22;34289;48.572;13.378;2022-09-09T13:08:04;16.40;99.90
48488;DHT22;34289;48.572;13.378;2022-09-09T13:10:35;16.40;99.90
48488;DHT22;34289;48.572;13.378;2022-09-09T13:13:04;16.40;99.90
48488;DHT22;34289;48.572;13.378;2022-09-09T13:15:30;16.50;99.90
48488;DHT22;34289;48.572;13.378;2022-09-09T13:17:59;16.50;99.90
48488;DHT22;34289;48.572;13.378;2022-09-09T13:20:27;16.50;99.90
48488;DHT22;34289;48.572;13.378;2022-09-09T13:22:54;16.60;99.90
48488;DHT22;34289;48.572;13.378;2022-09-09T13:25:23;16.70;99.90
48488;DHT22;34289;48.572;13.378;2022-09-09T13:38:14;17.00;99.90
48488;DHT22;34289;48.572;13.378;2022-09-09T13:40:40;17.20;99.90
48488;DHT22;34289;48.572;13.378;2022-09-09T13:43:21;17.20;99.90
48488;DHT22;34289;48.572;13.378;2022-09-09T13:46:00;17.30;99.90
48488;DHT22;34289;48.572;13.378;2022-09-09T13:48:27;17.50;99.90
48488;DHT22;34289;48.572;13.378;2022-09-09T13:51:02;17.60;99.90
48488;DHT22;34289;48.572;13.378;2022-09-09T13:53:29;17.70;99.90
48488;DHT22;34289;48.572;13.378;2022-09-09T13:55:56;17.90;99.90
48488;DHT22;34289;48.572;13.378;2022-09-09T13:58:22;18.00;99.90
48488;DHT22;34289;48.572;13.378;2022-09-09T14:00:50;18.00;99.90
48488;DHT22;34289;48.572;13.378;2022-09-09T14:03:16;18.10;99.90
48488;DHT22;34289;48.572;13.378;2022-09-09T14:05:42;18.00;99.90
48488;DHT22;34289;48.572;13.378;2022-09-09T14:08:15;18.10;99.90
48488;DHT22;34289;48.572;13.378;2022-09-09T14:10:41;18.10;99.90
48488;DHT22;34289;48.572;13.378;2022-09-09T14:13:10;18.20;99.90
48488;DHT22;34289;48.572;13.378;2022-09-09T14:15:36;18.40;99.90
48488;DHT22;34289;48.572;13.378;2022-09-09T14:18:02;18.50;99.90
48488;DHT22;34289;48.572;13.378;2022-09-09T14:20:28;18.70;99.90
48488;DHT22;34289;48.572;13.378;2022-09-09T14:22:53;18.80;99.90
48488;DHT22;34289;48.572;13.378;2022-09-09T14:25:19;18.90;99.90
48488;DHT22;34289;48.572;13.378;2022-09-09T14:27:45;19.00;99.90
48488;DHT22;34289;48.572;13.378;2022-09-09T14:30:11;19.00;99.90
48488;DHT22;34289;48.572;13.378;2022-09-09T14:32:37;19.20;99.90
48488;DHT22;34289;48.572;13.378;2022-09-09T14:35:03;19.40;99.90
48488;DHT22;34289;48.572;13.378;2022-09-09T14:37:29;19.70;99.90
48488;DHT22;34289;48.572;13.378;2022-09-09T14:39:56;19.80;99.90
48488;DHT22;34289;48.572;13.378;2022-09-09T14:42:22;20.10;99.90
48488;DHT22;34289;48.572;13.378;2022-09-09T14:44:48;20.20;99.90
48488;DHT22;34289;48.572;13.378;2022-09-09T14:47:14;20.50;99.90
48488;DHT22;34289;48.572;13.378;2022-09-09T14:49:40;20.70;99.90
48488;DHT22;34289;48.572;13.378;2022-09-09T14:52:05;20.70;99.90
48488;DHT22;34289;48.572;13.378;2022-09-09T14:54:32;20.70;99.90
48488;DHT22;34289;48.572;13.378;2022-09-09T14:56:58;20.80;99.90
48488;DHT22;34289;48.572;13.378;2022-09-09T14:59:24;20.60;99.90
48488;DHT22;34289;48.572;13.378;2022-09-09T15:01:49;20.70;99.90
48488;DHT22;34289;48.572;13.378;2022-09-09T15:04:15;20.80;99.90
48488;DHT22;34289;48.572;13.378;2022-09-09T15:06:42;21.00;99.90
48488;DHT22;34289;48.572;13.378;2022-09-09T15:09:10;20.70;99.90
48488;DHT22;34289;48.572;13.378;2022-09-09T15:11:37;20.20;99.90
48488;DHT22;34289;48.572;13.378;2022-09-09T15:14:04;20.00;99.90
48488;DHT22;34289;48.572;13.378;2022-09-09T15:16:30;19.60;99.90
48488;DHT22;34289;48.572;13.378;2022-09-09T15:18:59;19.60;99.90
48488;DHT22;34289;48.572;13.378;2022-09-09T15:21:27;19.90;99.90
48488;DHT22;34289;48.572;13.378;2022-09-09T15:23:54;20.50;99.90
48488;DHT22;34289;48.572;13.378;2022-09-09T15:26:20;22.00;99.90
48488;DHT22;34289;48.572;13.378;2022-09-09T15:28:47;23.30;99.90
48488;DHT22;34289;48.572;13.378;2022-09-09T15:31:24;24.20;99.90
48488;DHT22;34289;48.572;13.378;2022-09-09T15:33:55;24.90;99.90
48488;DHT22;34289;48.572;13.378;2022-09-09T15:36:28;25.90;99.90
48488;DHT22;34289;48.572;13.378;2022-09-09T15:38:54;25.80;99.90
48488;DHT22;34289;48.572;13.378;2022-09-09T15:41:21;25.10;99.90
48488;DHT22;34289;48.572;13.378;2022-09-09T15:43:49;24.30;99.90
48488;DHT22;34289;48.572;13.378;2022-09-09T15:46:23;23.50;99.90
48488;DHT22;34289;48.572;13.378;2022-09-09T15:48:50;22.70;99.90
48488;DHT22;34289;48.572;13.378;2022-09-09T15:51:16;22.10;99.90
48488;DHT22;34289;48.572;13.378;2022-09-09T15:53:42;21.50;99.90
48488;DHT22;34289;48.572;13.378;2022-09-09T15:56:09;21.20;99.90
48488;DHT22;34289;48.572;13.378;2022-09-09T15:58:35;21.00;99.90
48488;DHT22;34289;48.572;13.378;2022-09-09T16:01:07;20.60;99.90
48488;DHT22;34289;48.572;13.378;2022-09-09T16:03:41;20.40;99.90
48488;DHT22;34289;48.572;13.378;2022-09-09T16:06:13;20.30;99.90
48488;DHT22;34289;48.572;13.378;2022-09-09T16:08:41;20.30;99.90
48488;DHT22;34289;48.572;13.378;2022-09-09T16:11:20;20.30;99.90
48488;DHT22;34289;48.572;13.378;2022-09-09T16:13:47;20.20;99.90
48488;DHT22;34289;48.572;13.378;2022-09-09T16:16:14;20.00;99.90
48488;DHT22;34289;48.572;13.378;2022-09-09T16:18:46;19.80;99.90
48488;DHT22;34289;48.572;13.378;2022-09-09T16:21:24;19.90;99.90
48488;DHT22;34289;48.572;13.378;2022-09-09T16:23:52;19.80;99.90
48488;DHT22;34289;48.572;13.378;2022-09-09T16:26:19;19.80;99.90
48488;DHT22;34289;48.572;13.378;2022-09-09T16:28:45;19.60;99.90
48488;DHT22;34289;48.572;13.378;2022-09-09T16:31:19;19.60;99.90
48488;DHT22;34289;48.572;13.378;2022-09-09T16:33:45;19.50;99.90
48488;DHT22;34289;48.572;13.378;2022-09-09T16:36:18;19.40;99.90
48488;DHT22;34289;48.572;13.378;2022-09-09T16:38:44;19.30;99.90
48488;DHT22;34289;48.572;13.378;2022-09-09T16:41:11;19.20;99.90
48488;DHT22;34289;48.572;13.378;2022-09-09T16:43:39;19.10;99.90
48488;DHT22;34289;48.572;13.378;2022-09-09T16:46:17;19.00;99.90
48488;DHT22;34289;48.572;13.378;2022-09-09T16:48:44;18.90;99.90
48488;DHT22;34289;48.572;13.378;2022-09-09T16:51:30;18.70;99.90
48488;DHT22;34289;48.572;13.378;2022-09-09T16:53:58;18.60;99.90
48488;DHT22;34289;48.572;13.378;2022-09-09T16:56:27;18.40;99.90
48488;DHT22;34289;48.572;13.378;2022-09-09T16:58:54;18.20;99.90
48488;DHT22;34289;48.572;13.378;2022-09-09T17:01:22;18.10;99.90
48488;DHT22;34289;48.572;13.378;2022-09-09T17:03:51;18.00;99.90
48488;DHT22;34289;48.572;13.378;2022-09-09T17:06:17;17.90;99.90
48488;DHT22;34289;48.572;13.378;2022-09-09T17:08:42;17.80;99.90
48488;DHT22;34289;48.572;13.378;2022-09-09T17:11:15;17.70;99.90
48488;DHT22;34289;48.572;13.378;2022-09-09T17:13:42;17.70;99.90
48488;DHT22;34289;48.572;13.378;2022-09-09T17:16:09;17.50;99.90
48488;DHT22;34289;48.572;13.378;2022-09-09T17:18:35;17.40;99.90
48488;DHT22;34289;48.572;13.378;2022-09-09T17:21:07;17.30;99.90
48488;DHT22;34289;48.572;13.378;2022-09-09T17:23:34;17.10;99.90
48488;DHT22;34289;48.572;13.378;2022-09-09T17:26:04;17.00;99.90
48488;DHT22;34289;48.572;13.378;2022-09-09T17:28:31;16.90;99.90
48488;DHT22;34289;48.572;13.378;2022-09-09T17:31:00;16.80;99.90
48488;DHT22;34289;48.572;13.378;2022-09-09T17:33:31;16.80;99.90
48488;DHT22;34289;48.572;13.378;2022-09-09T17:36:04;16.70;99.90
48488;DHT22;34289;48.572;13.378;2022-09-09T17:38:32;16.60;99.90
48488;DHT22;34289;48.572;13.378;2022-09-09T17:41:22;16.50;99.90
48488;DHT22;34289;48.572;13.378;2022-09-09T17:43:48;16.50;99.90
48488;DHT22;34289;48.572;13.378;2022-09-09T17:46:17;16.50;99.90
48488;DHT22;34289;48.572;13.378;2022-09-09T17:48:45;16.50;99.90
48488;DHT22;34289;48.572;13.378;2022-09-09T17:51:14;16.40;99.90